Brzeg, Poland
Current Conditions -  °F | °C
As of 11:00 PM on Friday 19 Dec 2014 (Local Time) from EPWR Reporting Station
Few Clouds Few Clouds  
Wind Chill: 50°   Ceiling: Unl
Heat Index: 50°   Visibility: 6mi
Dew Point: 41°   Wind: 12mph
Humidity: 71%   Direction: 270°W
Pressure: 29.83"   Gusts: NA
Location:  50.85°N, 17.47°E
Report Text: EPWR 192100Z 27010KT 9999 FEW037 10/05 Q1010
Loading
Personal Weather Stations






























Interactive Weather Map New forecast layout! Learn more

10-Day Weather Forecast

Advertisements
Track Severe Weather on mobile